createdAt,value
2018-01-28T00:01:43.985Z,99.90
2018-01-28T00:04:12.371Z,99.90
2018-01-28T00:06:40.661Z,99.90
2018-01-28T00:09:09.919Z,99.90
2018-01-28T00:11:38.305Z,99.90
2018-01-28T00:14:07.601Z,99.90
2018-01-28T00:16:36.827Z,99.90
2018-01-28T00:19:05.322Z,99.90
2018-01-28T00:21:33.954Z,99.90
2018-01-28T00:24:02.640Z,99.90
2018-01-28T00:26:31.126Z,99.90
2018-01-28T00:28:59.514Z,99.90
2018-01-28T00:31:27.994Z,99.90
2018-01-28T00:33:56.682Z,99.90
2018-01-28T00:36:25.436Z,99.90
2018-01-28T00:38:54.856Z,99.90
2018-01-28T00:41:23.297Z,99.90
2018-01-28T00:43:51.950Z,99.90
2018-01-28T00:46:20.334Z,99.90
2018-01-28T00:48:48.666Z,99.90
2018-01-28T00:51:16.376Z,99.90
2018-01-28T00:53:45.022Z,99.90
2018-01-28T00:56:13.554Z,99.90
2018-01-28T00:58:42.801Z,99.90
2018-01-28T01:01:11.289Z,99.90
2018-01-28T01:03:40.689Z,99.90
2018-01-28T01:06:08.937Z,99.90
2018-01-28T01:08:37.544Z,99.90
2018-01-28T01:11:05.933Z,99.90
2018-01-28T01:13:34.378Z,99.90
2018-01-28T01:16:03.040Z,99.90
2018-01-28T01:18:31.379Z,99.90
2018-01-28T01:21:00.144Z,99.90
2018-01-28T01:23:28.612Z,99.90
2018-01-28T01:25:57.108Z,99.90
2018-01-28T01:28:25.838Z,99.90
2018-01-28T01:30:54.976Z,99.90
2018-01-28T01:33:24.410Z,99.90
2018-01-28T01:35:53.078Z,99.90
2018-01-28T01:38:21.726Z,99.90
2018-01-28T01:40:50.394Z,99.90
2018-01-28T01:43:19.337Z,99.90
2018-01-28T01:45:47.719Z,99.90
2018-01-28T01:48:16.318Z,99.90
2018-01-28T01:50:44.705Z,99.90
2018-01-28T01:53:13.877Z,99.90
2018-01-28T01:55:42.542Z,99.90
2018-01-28T01:58:10.926Z,99.90
2018-01-28T02:00:39.609Z,99.90
2018-01-28T02:03:09.044Z,99.90
2018-01-28T02:05:37.901Z,99.90
2018-01-28T02:08:06.285Z,99.90
2018-01-28T02:10:34.681Z,99.90
2018-01-28T02:13:03.054Z,99.90
2018-01-28T02:15:31.709Z,99.90
2018-01-28T02:18:00.184Z,99.90
2018-01-28T02:20:29.609Z,99.90
2018-01-28T02:22:58.257Z,99.90
2018-01-28T02:25:27.163Z,99.90
2018-01-28T02:27:56.580Z,99.90
2018-01-28T02:30:25.989Z,99.90
2018-01-28T02:32:54.377Z,99.90
2018-01-28T02:35:22.753Z,99.90
2018-01-28T02:37:51.326Z,99.90
2018-01-28T02:40:19.716Z,99.90
2018-01-28T02:42:48.218Z,99.90
2018-01-28T02:45:16.885Z,99.90
2018-01-28T02:47:45.266Z,99.90
2018-01-28T02:50:14.010Z,99.90
2018-01-28T02:52:42.506Z,99.90
2018-01-28T02:55:10.978Z,99.90
2018-01-28T02:57:39.554Z,99.90
2018-01-28T03:00:08.313Z,99.90
2018-01-28T03:02:37.470Z,99.90
2018-01-28T03:05:06.130Z,99.90
2018-01-28T03:07:34.501Z,99.90
2018-01-28T03:10:02.888Z,99.90
2018-01-28T03:12:32.298Z,99.90
2018-01-28T03:15:00.671Z,99.90
2018-01-28T03:17:29.345Z,99.90
2018-01-28T03:19:57.869Z,99.90
2018-01-28T03:22:26.590Z,99.90
2018-01-28T03:24:56.009Z,99.90
2018-01-28T03:27:25.449Z,99.90
2018-01-28T03:29:53.833Z,99.90
2018-01-28T03:32:22.303Z,99.90
2018-01-28T03:34:50.501Z,99.90
2018-01-28T03:37:18.850Z,99.90
2018-01-28T03:39:47.237Z,99.90
2018-01-28T03:42:15.818Z,99.90
2018-01-28T03:44:44.498Z,99.90
2018-01-28T03:47:12.993Z,99.90
2018-01-28T03:49:41.450Z,99.90
2018-01-28T03:52:09.914Z,99.90
2018-01-28T03:54:38.302Z,99.90
2018-01-28T03:57:06.673Z,99.90
2018-01-28T03:59:35.182Z,99.90
2018-01-28T04:02:04.582Z,99.90
2018-01-28T04:04:33.306Z,99.90
2018-01-28T04:07:02.461Z,99.90
2018-01-28T04:09:30.846Z,99.90
2018-01-28T04:11:59.262Z,99.90
2018-01-28T04:14:27.918Z,99.90
2018-01-28T04:16:56.305Z,99.90
2018-01-28T04:19:24.303Z,99.90
2018-01-28T04:21:52.957Z,99.90
2018-01-28T04:24:21.496Z,99.90
2018-01-28T04:26:50.071Z,99.90
2018-01-28T04:29:18.767Z,99.90
2018-01-28T04:31:47.361Z,99.90
2018-01-28T04:34:16.114Z,99.90
2018-01-28T04:36:44.800Z,99.90
2018-01-28T04:39:13.291Z,99.90
2018-01-28T04:41:41.674Z,99.90
2018-01-28T04:44:10.354Z,99.90
2018-01-28T04:46:38.866Z,99.90
2018-01-28T04:49:07.712Z,99.90
2018-01-28T04:51:36.317Z,99.90
2018-01-28T04:54:04.705Z,99.90
2018-01-28T04:56:33.102Z,99.90
2018-01-28T04:59:01.286Z,99.90
2018-01-28T05:01:30.189Z,99.90
2018-01-28T05:03:59.511Z,99.90
2018-01-28T05:06:28.036Z,99.90
2018-01-28T05:08:56.553Z,99.90
2018-01-28T05:11:24.869Z,99.90
2018-01-28T05:13:53.337Z,99.90
2018-01-28T05:16:21.545Z,99.90
2018-01-28T05:18:49.759Z,99.90
2018-01-28T05:21:18.014Z,99.90
2018-01-28T05:23:46.214Z,99.90
2018-01-28T05:26:14.465Z,99.90
2018-01-28T05:28:43.741Z,99.90
2018-01-28T05:31:12.697Z,99.90
2018-01-28T05:33:41.085Z,99.90
2018-01-28T05:36:09.667Z,99.90
2018-01-28T05:38:38.326Z,99.90
2018-01-28T05:41:06.986Z,99.90
2018-01-28T05:43:35.642Z,99.90
2018-01-28T05:46:04.026Z,99.90
2018-01-28T05:48:32.410Z,99.90
2018-01-28T05:51:00.786Z,99.90
2018-01-28T05:53:29.012Z,99.90
2018-01-28T05:55:57.449Z,99.90
2018-01-28T05:58:26.130Z,99.90
2018-01-28T06:00:54.798Z,99.90
2018-01-28T06:03:23.201Z,99.90
2018-01-28T06:05:52.469Z,99.90
2018-01-28T06:08:21.369Z,99.90
2018-01-28T06:10:50.473Z,99.90
2018-01-28T06:13:18.849Z,99.90
2018-01-28T06:15:47.517Z,99.90
2018-01-28T06:18:16.181Z,99.90
2018-01-28T06:20:44.831Z,99.90
2018-01-28T06:23:13.511Z,99.90
2018-01-28T06:25:42.161Z,99.90
2018-01-28T06:28:10.803Z,99.90
2018-01-28T06:30:39.286Z,99.90
2018-01-28T06:33:07.985Z,99.90
2018-01-28T06:35:36.360Z,99.90
2018-01-28T06:38:05.586Z,99.90
2018-01-28T06:40:34.010Z,99.90
2018-01-28T06:43:03.252Z,99.90
2018-01-28T06:45:31.906Z,99.90
2018-01-28T06:48:00.658Z,99.90
2018-01-28T06:50:29.134Z,99.90
2018-01-28T06:52:57.598Z,99.90
2018-01-28T06:55:26.226Z,99.90
2018-01-28T06:57:54.873Z,99.90
2018-01-28T07:00:24.040Z,99.90
2018-01-28T07:02:52.694Z,99.90
2018-01-28T07:05:21.079Z,99.90
2018-01-28T07:07:49.465Z,99.90
2018-01-28T07:10:18.885Z,99.90
2018-01-28T07:12:47.537Z,99.90
2018-01-28T07:15:15.733Z,99.90
2018-01-28T07:17:44.109Z,99.90
2018-01-28T07:20:12.761Z,99.90
2018-01-28T07:22:41.148Z,99.90
2018-01-28T07:25:09.533Z,99.90
2018-01-28T07:27:38.941Z,99.90
2018-01-28T07:30:07.334Z,99.90
2018-01-28T07:32:35.999Z,99.90
2018-01-28T07:35:06.188Z,99.90
2018-01-28T07:37:35.283Z,99.90
2018-01-28T07:40:03.857Z,99.90
2018-01-28T07:42:32.271Z,99.90
2018-01-28T07:45:01.136Z,99.90
2018-01-28T07:47:29.553Z,99.90
2018-01-28T07:49:59.269Z,99.90
2018-01-28T07:52:27.937Z,99.90
2018-01-28T07:54:57.152Z,99.90
2018-01-28T07:57:26.193Z,99.90
2018-01-28T07:59:55.377Z,99.90
2018-01-28T08:02:23.765Z,99.90
2018-01-28T08:04:53.143Z,99.90
2018-01-28T08:07:22.356Z,99.90
2018-01-28T08:10:06.673Z,99.90
2018-01-28T08:12:37.343Z,99.90
2018-01-28T08:15:05.717Z,99.90
2018-01-28T08:17:34.261Z,99.90
2018-01-28T08:20:02.939Z,99.90
2018-01-28T08:22:31.454Z,99.90
2018-01-28T08:24:59.819Z,99.90
2018-01-28T08:27:29.979Z,99.90
2018-01-28T08:29:58.447Z,99.90
2018-01-28T08:32:27.017Z,99.90
2018-01-28T08:34:55.405Z,99.90
2018-01-28T08:37:24.557Z,99.90
2018-01-28T08:39:52.928Z,99.90
2018-01-28T08:42:21.322Z,99.90
2018-01-28T08:44:50.083Z,99.90
2018-01-28T08:47:18.370Z,99.90
2018-01-28T08:49:46.774Z,99.90
2018-01-28T08:52:15.657Z,99.90
2018-01-28T08:54:44.306Z,99.90
2018-01-28T08:57:13.742Z,99.90
2018-01-28T08:59:42.390Z,99.90
2018-01-28T09:02:10.902Z,99.90
2018-01-28T09:04:39.664Z,99.90
2018-01-28T09:07:08.357Z,99.90
2018-01-28T09:09:36.753Z,99.90
2018-01-28T09:12:05.417Z,99.90
2018-01-28T09:14:34.841Z,99.90
2018-01-28T09:17:04.130Z,99.90
2018-01-28T09:19:32.525Z,99.90
2018-01-28T09:22:00.967Z,99.90
2018-01-28T09:24:30.382Z,99.90
2018-01-28T09:26:58.781Z,99.90
2018-01-28T09:29:27.157Z,99.90
2018-01-28T09:31:55.535Z,99.90
2018-01-28T09:34:24.189Z,99.90
2018-01-28T09:36:52.591Z,99.90
2018-01-28T09:39:20.974Z,99.90
2018-01-28T09:41:49.373Z,99.90
2018-01-28T09:44:17.806Z,99.90
2018-01-28T09:46:47.227Z,99.90
2018-01-28T09:49:15.882Z,99.90
2018-01-28T09:51:45.328Z,99.90
2018-01-28T09:54:14.994Z,99.90
2018-01-28T09:56:44.197Z,99.90
2018-01-28T09:59:12.889Z,99.90
2018-01-28T10:01:41.603Z,99.90
2018-01-28T10:04:10.408Z,99.90
2018-01-28T10:06:39.859Z,99.90
2018-01-28T10:09:07.906Z,99.90
2018-01-28T10:11:37.054Z,99.90
2018-01-28T10:14:05.194Z,99.90
2018-01-28T10:16:33.630Z,99.90
2018-01-28T10:19:02.018Z,99.90
2018-01-28T10:21:31.376Z,99.90
2018-01-28T10:24:00.570Z,99.90
2018-01-28T10:26:29.890Z,99.90
2018-01-28T10:28:58.272Z,99.90
2018-01-28T10:31:26.734Z,99.90
2018-01-28T10:33:55.134Z,99.90
2018-01-28T10:36:23.536Z,99.90
2018-01-28T10:38:52.682Z,99.90
2018-01-28T10:41:21.290Z,99.90
2018-01-28T10:43:49.749Z,99.90
2018-01-28T10:46:18.017Z,99.90
2018-01-28T10:48:47.724Z,99.90
2018-01-28T10:51:16.161Z,99.90
2018-01-28T10:53:45.117Z,99.90
2018-01-28T10:56:13.513Z,99.90
2018-01-28T10:58:42.061Z,99.90
2018-01-28T11:01:10.441Z,99.90
2018-01-28T11:03:38.828Z,99.90
2018-01-28T11:06:07.285Z,99.90
2018-01-28T11:08:35.665Z,99.90
2018-01-28T11:11:04.086Z,99.90
2018-01-28T11:13:32.666Z,99.90
2018-01-28T11:16:01.298Z,99.90
2018-01-28T11:18:29.998Z,99.90
2018-01-28T11:20:58.381Z,98.70
2018-01-28T11:23:26.918Z,99.30
2018-01-28T11:25:55.429Z,99.60
2018-01-28T11:28:23.797Z,98.50
2018-01-28T11:30:52.183Z,98.50
2018-01-28T11:33:20.659Z,96.20
2018-01-28T11:35:49.062Z,96.80
2018-01-28T11:38:17.712Z,95.30
2018-01-28T11:40:46.293Z,94.40
2018-01-28T11:43:14.677Z,94.30
2018-01-28T11:45:42.717Z,95.20
2018-01-28T11:48:11.369Z,94.40
2018-01-28T11:50:40.070Z,93.20
2018-01-28T11:53:09.427Z,93.40
2018-01-28T11:55:38.859Z,94.10
2018-01-28T11:58:07.233Z,94.20
2018-01-28T12:00:35.923Z,95.90
2018-01-28T12:03:05.118Z,97.30
2018-01-28T12:05:33.534Z,97.30
2018-01-28T12:08:02.178Z,98.20
2018-01-28T12:10:30.791Z,97.30
2018-01-28T12:13:00.141Z,98.20
2018-01-28T12:15:28.504Z,98.00
2018-01-28T12:17:56.880Z,99.00
2018-01-28T12:20:25.394Z,98.60
2018-01-28T12:22:53.774Z,98.40
2018-01-28T12:25:22.161Z,99.50
2018-01-28T12:27:51.264Z,98.20
2018-01-28T12:30:19.634Z,98.20
2018-01-28T12:32:47.859Z,97.00
2018-01-28T12:35:17.317Z,96.60
2018-01-28T12:37:45.812Z,96.30
2018-01-28T12:40:14.188Z,96.80
2018-01-28T12:42:43.330Z,99.30
2018-01-28T12:45:12.131Z,99.00
2018-01-28T12:47:40.539Z,99.10
2018-01-28T12:50:09.890Z,99.90
2018-01-28T12:52:38.291Z,99.90
2018-01-28T12:55:06.948Z,99.60
2018-01-28T12:57:35.325Z,99.90
2018-01-28T13:00:03.871Z,99.90
2018-01-28T13:02:33.013Z,99.40
2018-01-28T13:05:02.429Z,98.90
2018-01-28T13:07:31.010Z,98.90
2018-01-28T13:09:59.409Z,98.80
2018-01-28T13:12:27.774Z,98.10
2018-01-28T13:14:56.418Z,99.20
2018-01-28T13:17:25.078Z,98.20
2018-01-28T13:19:53.474Z,96.80
2018-01-28T13:22:22.110Z,95.30
2018-01-28T13:24:50.862Z,95.90
2018-01-28T13:27:19.366Z,95.30
2018-01-28T13:29:47.738Z,95.90
2018-01-28T13:32:16.126Z,95.30
2018-01-28T13:34:44.776Z,96.30
2018-01-28T13:37:13.154Z,96.20
2018-01-28T13:39:41.735Z,96.20
2018-01-28T13:42:10.389Z,96.50
2018-01-28T13:44:39.161Z,97.30
2018-01-28T13:47:07.846Z,97.10
2018-01-28T13:49:37.110Z,98.30
2018-01-28T13:52:05.477Z,98.20
2018-01-28T13:54:34.893Z,99.10
2018-01-28T13:57:03.257Z,99.10
2018-01-28T13:59:31.977Z,98.70
2018-01-28T14:02:00.687Z,99.20
2018-01-28T14:04:29.817Z,99.90
2018-01-28T14:06:58.295Z,99.90
2018-01-28T14:09:26.947Z,99.90
2018-01-28T14:11:56.089Z,99.90
2018-01-28T14:14:24.496Z,99.90
2018-01-28T14:16:52.937Z,99.90
2018-01-28T14:19:21.916Z,99.90
2018-01-28T14:21:50.610Z,99.90
2018-01-28T14:24:19.124Z,99.90
2018-01-28T14:26:47.760Z,99.90
2018-01-28T14:29:16.370Z,99.90
2018-01-28T14:31:45.390Z,99.60
2018-01-28T14:34:13.972Z,99.60
2018-01-28T14:36:42.354Z,99.90
2018-01-28T14:39:10.482Z,99.60
2018-01-28T14:41:39.702Z,99.10
2018-01-28T14:44:08.926Z,98.80
2018-01-28T14:46:37.298Z,98.80
2018-01-28T14:49:07.121Z,98.50
2018-01-28T14:51:35.318Z,98.40
2018-01-28T14:54:03.782Z,98.50
2018-01-28T14:56:32.446Z,99.10
2018-01-28T14:59:01.086Z,97.20
2018-01-28T15:01:29.469Z,97.20
2018-01-28T15:03:57.864Z,97.90
2018-01-28T15:06:26.241Z,96.80
2018-01-28T15:08:54.629Z,97.10
2018-01-28T15:11:23.273Z,96.10
2018-01-28T15:13:51.269Z,96.40
2018-01-28T15:16:19.653Z,95.60
2018-01-28T15:18:48.033Z,95.50
2018-01-28T15:21:16.541Z,93.60
2018-01-28T15:23:45.695Z,93.40
2018-01-28T15:26:14.073Z,93.50
2018-01-28T15:28:42.867Z,92.60
2018-01-28T15:31:12.297Z,91.70
2018-01-28T15:33:40.952Z,91.70
2018-01-28T15:36:09.360Z,91.70
2018-01-28T15:38:38.016Z,92.50
2018-01-28T15:41:06.386Z,92.80
2018-01-28T15:43:35.290Z,92.10
2018-01-28T15:46:04.480Z,90.90
2018-01-28T15:48:32.854Z,90.90
2018-01-28T15:51:01.038Z,91.20
2018-01-28T15:53:29.394Z,91.20
2018-01-28T15:55:58.357Z,90.80
2018-01-28T15:58:27.034Z,91.30
2018-01-28T16:00:57.080Z,91.30
2018-01-28T16:03:25.473Z,91.30
2018-01-28T16:05:54.502Z,91.60
2018-01-28T16:08:23.317Z,91.60
2018-01-28T16:10:52.462Z,92.10
2018-01-28T16:13:20.935Z,92.10
2018-01-28T16:15:50.350Z,93.00
2018-01-28T16:18:19.006Z,92.90
2018-01-28T16:20:48.410Z,92.20
2018-01-28T16:23:16.885Z,92.20
2018-01-28T16:25:44.793Z,92.20
2018-01-28T16:28:13.201Z,93.10
2018-01-28T16:30:41.774Z,92.30
2018-01-28T16:33:10.145Z,91.70
2018-01-28T16:35:38.363Z,92.20
2018-01-28T16:38:07.809Z,91.80
2018-01-28T16:40:36.186Z,93.10
2018-01-28T16:43:05.033Z,91.40
2018-01-28T16:45:33.703Z,91.50
2018-01-28T16:48:02.159Z,91.90
2018-01-28T16:50:30.534Z,91.20
2018-01-28T16:52:59.680Z,91.30
2018-01-28T16:55:28.092Z,91.30
2018-01-28T16:57:56.462Z,91.20
2018-01-28T17:00:25.370Z,91.00
2018-01-28T17:02:53.988Z,90.00
2018-01-28T17:05:22.634Z,90.70
2018-01-28T17:07:52.020Z,91.20
2018-01-28T17:10:22.440Z,91.20
2018-01-28T17:12:51.096Z,91.10
2018-01-28T17:15:19.282Z,90.90
2018-01-28T17:17:48.717Z,91.50
2018-01-28T17:20:17.090Z,91.50
2018-01-28T17:22:45.570Z,91.40
2018-01-28T17:25:14.062Z,92.30
2018-01-28T17:27:43.194Z,92.30
2018-01-28T17:30:11.832Z,92.30
2018-01-28T17:32:40.575Z,92.60
2018-01-28T17:35:14.706Z,92.60
2018-01-28T17:37:43.474Z,92.40
2018-01-28T17:40:11.676Z,92.80
2018-01-28T17:42:40.062Z,92.40
2018-01-28T17:45:08.449Z,92.50
2018-01-28T17:47:36.864Z,92.60
2018-01-28T17:50:05.874Z,93.00
2018-01-28T17:52:34.514Z,92.70
2018-01-28T17:55:03.125Z,92.90
2018-01-28T17:57:31.792Z,93.30
2018-01-28T18:00:01.023Z,94.20
2018-01-28T18:02:29.609Z,94.20
2018-01-28T18:04:59.030Z,95.40
2018-01-28T18:07:28.432Z,95.90
2018-01-28T18:09:57.118Z,95.90
2018-01-28T18:12:25.713Z,96.30
2018-01-28T18:14:54.085Z,96.40
2018-01-28T18:17:23.066Z,96.50
2018-01-28T18:19:52.481Z,96.80
2018-01-28T18:22:20.963Z,96.70
2018-01-28T18:24:48.861Z,97.00
2018-01-28T18:27:17.595Z,97.50
2018-01-28T18:29:47.002Z,97.60
2018-01-28T18:32:15.375Z,97.60
2018-01-28T18:34:43.763Z,97.50
2018-01-28T18:37:12.155Z,98.00
2018-01-28T18:39:40.522Z,97.00
2018-01-28T18:42:08.915Z,97.20
2018-01-28T18:44:37.552Z,96.70
2018-01-28T18:47:06.184Z,96.90
2018-01-28T18:49:33.954Z,96.70
2018-01-28T18:52:02.598Z,96.60
2018-01-28T18:54:31.269Z,96.70
2018-01-28T18:56:59.648Z,96.00
2018-01-28T18:59:27.979Z,96.10
2018-01-28T19:01:56.546Z,96.80
2018-01-28T19:04:25.191Z,95.80
2018-01-28T19:06:54.505Z,95.80
2018-01-28T19:09:23.939Z,95.50
2018-01-28T19:11:52.317Z,95.50
2018-01-28T19:14:20.693Z,95.60
2018-01-28T19:16:49.061Z,95.60
2018-01-28T19:19:17.703Z,95.80
2018-01-28T19:21:46.336Z,96.00
2018-01-28T19:24:14.793Z,96.60
2018-01-28T19:26:43.352Z,97.10
2018-01-28T19:29:11.994Z,97.20
2018-01-28T19:31:40.625Z,97.60
2018-01-28T19:34:09.007Z,97.80
2018-01-28T19:36:37.094Z,98.50
2018-01-28T19:39:04.826Z,98.90
2018-01-28T19:41:33.202Z,99.10
2018-01-28T19:44:02.090Z,99.50
2018-01-28T19:46:30.678Z,99.70
2018-01-28T19:48:59.214Z,99.80
2018-01-28T19:51:27.644Z,99.90
2018-01-28T19:53:56.274Z,99.90
2018-01-28T19:56:24.922Z,99.90
2018-01-28T19:58:54.321Z,99.90
2018-01-28T20:01:23.377Z,99.90
2018-01-28T20:03:51.846Z,99.90
2018-01-28T20:06:20.461Z,99.90
2018-01-28T20:08:48.833Z,99.90
2018-01-28T20:11:17.281Z,99.90
2018-01-28T20:13:45.917Z,99.90
2018-01-28T20:16:15.317Z,99.90
2018-01-28T20:18:43.697Z,99.90
2018-01-28T20:21:13.097Z,99.90
2018-01-28T20:23:41.571Z,99.90
2018-01-28T20:26:10.998Z,99.90
2018-01-28T20:28:39.653Z,99.90
2018-01-28T20:31:08.043Z,99.90
2018-01-28T20:33:37.269Z,99.90
2018-01-28T20:36:05.692Z,99.90
2018-01-28T20:38:34.837Z,99.90
2018-01-28T20:41:03.514Z,99.90
2018-01-28T20:43:31.881Z,99.90
2018-01-28T20:46:00.478Z,99.90
2018-01-28T20:48:28.869Z,99.90
2018-01-28T20:50:57.252Z,99.90
2018-01-28T20:53:25.632Z,99.90
2018-01-28T20:58:28.212Z,99.90
2018-01-28T21:00:56.617Z,99.90
2018-01-28T21:03:25.266Z,99.90
2018-01-28T21:05:53.629Z,99.90
2018-01-28T21:08:22.013Z,99.90
2018-01-28T21:10:50.386Z,99.90
2018-01-28T21:13:18.754Z,99.90
2018-01-28T21:15:47.134Z,99.90
2018-01-28T21:18:15.828Z,99.90
2018-01-28T21:20:44.446Z,99.90
2018-01-28T21:23:13.135Z,99.90
2018-01-28T21:25:42.309Z,99.90
2018-01-28T21:28:10.970Z,99.90
2018-01-28T21:30:39.353Z,99.90
2018-01-28T21:33:08.758Z,99.90
2018-01-28T21:35:38.154Z,99.90
2018-01-28T21:38:07.558Z,99.90
2018-01-28T21:40:35.965Z,99.90
2018-01-28T21:43:04.588Z,99.90
2018-01-28T21:45:33.738Z,99.90
2018-01-28T21:48:02.186Z,99.90
2018-01-28T21:50:31.602Z,99.90
2018-01-28T21:53:00.302Z,99.90
2018-01-28T21:55:29.441Z,99.90
2018-01-28T21:57:58.333Z,99.90
2018-01-28T22:00:26.990Z,99.90
2018-01-28T22:02:55.621Z,99.90
2018-01-28T22:05:23.990Z,99.90
2018-01-28T22:07:52.241Z,99.90
2018-01-28T22:10:20.689Z,99.90
2018-01-28T22:12:49.063Z,99.90
2018-01-28T22:15:17.445Z,99.90
2018-01-28T22:17:45.837Z,99.90
2018-01-28T22:20:14.471Z,99.90
2018-01-28T22:22:43.692Z,99.90
2018-01-28T22:25:12.063Z,99.90
2018-01-28T22:27:40.744Z,99.90
2018-01-28T22:30:09.426Z,99.90
2018-01-28T22:32:37.841Z,99.90
2018-01-28T22:35:06.478Z,99.90
2018-01-28T22:37:34.877Z,99.90
2018-01-28T22:40:03.251Z,99.90
2018-01-28T22:42:31.921Z,99.90
2018-01-28T22:45:00.114Z,99.90
2018-01-28T22:47:28.150Z,99.90
2018-01-28T22:49:56.790Z,99.90
2018-01-28T22:52:25.257Z,99.90
2018-01-28T22:54:53.628Z,99.90
2018-01-28T22:57:22.153Z,99.90
2018-01-28T22:59:50.705Z,99.90
2018-01-28T23:02:19.338Z,99.90
2018-01-28T23:04:47.981Z,99.90
2018-01-28T23:07:16.433Z,99.90
2018-01-28T23:09:45.825Z,99.90
2018-01-28T23:12:14.224Z,99.90
2018-01-28T23:14:42.977Z,99.90
2018-01-28T23:17:11.571Z,99.90
2018-01-28T23:19:39.864Z,99.90
2018-01-28T23:22:08.252Z,99.90
2018-01-28T23:24:36.072Z,99.90
2018-01-28T23:27:05.522Z,99.90
2018-01-28T23:29:33.918Z,99.90
2018-01-28T23:32:03.166Z,99.90
2018-01-28T23:34:31.542Z,99.90
2018-01-28T23:36:59.737Z,99.90
2018-01-28T23:39:28.206Z,99.90
2018-01-28T23:41:55.933Z,99.90
2018-01-28T23:44:24.577Z,99.90
2018-01-28T23:46:53.319Z,99.90
2018-01-28T23:49:22.411Z,99.90
2018-01-28T23:51:50.793Z,99.90
2018-01-28T23:54:19.437Z,99.90
2018-01-28T23:56:47.617Z,99.90
2018-01-28T23:59:15.493Z,99.90
